Time;durP1;ratioP1;P1;durP2;ratioP2;P2;SDS_P1;SDS_P2;PMS_P1;PMS_P2;Temp;Humidity;BMP_temperature;BMP_pressure;BME280_temperature;BME280_humidity;BME280_pressure;Samples;Min_cycle;Max_cycle;Signal;HPM_P1;HPM_P2
2023/04/27 00:02:17;;;;;;;16.40;11.40;;;2.30;99.90;;;;;;5037769;28;20045;-36
2023/04/27 00:04:43;;;;;;;15.43;10.23;;;2.30;99.90;;;;;;5036086;28;20713;-35
2023/04/27 00:07:09;;;;;;;17.83;10.55;;;2.30;99.90;;;;;;5036173;28;20045;-38
2023/04/27 00:09:34;;;;;;;13.57;9.85;;;2.30;99.90;;;;;;5036848;28;20033;-34
2023/04/27 00:12:00;;;;;;;19.00;12.57;;;2.20;99.90;;;;;;5036394;28;20107;-38
2023/04/27 00:14:27;;;;;;;12.23;8.95;;;2.10;99.90;;;;;;5036349;28;20079;-44
2023/04/27 00:16:53;;;;;;;13.10;8.75;;;2.10;99.90;;;;;;5036086;28;20044;-36
2023/04/27 00:19:19;;;;;;;12.48;8.65;;;2.10;99.90;;;;;;5036480;28;20056;-37
2023/04/27 00:21:45;;;;;;;14.98;8.82;;;2.10;99.90;;;;;;5051518;28;20398;-40
2023/04/27 00:24:11;;;;;;;11.32;7.25;;;2.00;99.90;;;;;;5036051;28;20048;-36
2023/04/27 00:26:36;;;;;;;9.07;5.55;;;2.00;99.90;;;;;;5035652;28;20045;-42
2023/04/27 00:29:02;;;;;;;10.27;5.75;;;2.00;99.90;;;;;;5036808;28;20096;-37
2023/04/27 00:31:28;;;;;;;9.80;6.40;;;2.00;99.90;;;;;;5037127;28;20059;-36
2023/04/27 00:33:53;;;;;;;8.65;6.38;;;2.00;99.90;;;;;;5036410;28;20044;-37
2023/04/27 00:36:19;;;;;;;14.10;7.20;;;1.90;99.90;;;;;;5035588;28;20404;-35
2023/04/27 00:38:45;;;;;;;8.40;5.97;;;2.00;99.90;;;;;;5036427;28;20510;-35
2023/04/27 00:41:10;;;;;;;13.15;5.93;;;1.90;99.90;;;;;;5024385;28;20033;-39
2023/04/27 00:43:43;;;;;;;7.93;5.80;;;1.90;99.90;;;;;;5035911;28;20421;-39
2023/04/27 00:46:12;;;;;;;6.68;5.53;;;1.80;99.90;;;;;;5036620;28;20081;-40
2023/04/27 00:48:38;;;;;;;7.85;5.90;;;1.80;99.90;;;;;;5036663;28;20056;-39
2023/04/27 00:51:05;;;;;;;9.20;6.20;;;1.80;99.90;;;;;;5036119;28;20343;-40
2023/04/27 00:53:30;;;;;;;8.27;7.32;;;1.80;99.90;;;;;;5035402;28;20380;-38
2023/04/27 00:55:57;;;;;;;11.52;6.30;;;1.80;99.90;;;;;;5043163;28;20475;-43
2023/04/27 00:58:23;;;;;;;9.38;5.82;;;1.70;99.90;;;;;;5035572;28;20048;-36
2023/04/27 01:00:49;;;;;;;10.32;5.72;;;1.70;99.90;;;;;;5028922;28;20186;-38
2023/04/27 01:03:16;;;;;;;7.07;5.18;;;1.70;99.90;;;;;;5037135;28;21030;-41
2023/04/27 01:05:42;;;;;;;9.98;6.07;;;1.60;99.90;;;;;;5035673;28;20045;-35
2023/04/27 01:08:08;;;;;;;6.05;5.05;;;1.60;99.90;;;;;;5034784;28;20494;-38
2023/04/27 01:10:34;;;;;;;6.72;4.80;;;1.50;99.90;;;;;;5035664;28;20052;-37
2023/04/27 01:13:00;;;;;;;6.63;5.07;;;1.50;99.90;;;;;;5035078;28;20485;-35
2023/04/27 01:15:26;;;;;;;5.55;4.68;;;1.50;99.90;;;;;;5035982;28;20482;-37
2023/04/27 01:18:01;;;;;;;6.70;5.03;;;1.40;99.90;;;;;;5035288;28;20049;-36
2023/04/27 01:20:29;;;;;;;7.07;5.28;;;1.40;99.90;;;;;;5035850;28;20048;-36
2023/04/27 01:22:55;;;;;;;7.70;5.35;;;1.40;99.90;;;;;;5035668;28;20119;-36
2023/04/27 01:25:22;;;;;;;9.15;5.47;;;1.40;99.90;;;;;;5035643;28;20158;-38
2023/04/27 01:27:48;;;;;;;9.32;5.68;;;1.40;99.90;;;;;;5034448;28;20040;-35
2023/04/27 01:30:14;;;;;;;8.02;6.38;;;1.30;99.90;;;;;;5024530;28;20053;-39
2023/04/27 01:32:40;;;;;;;11.60;5.60;;;1.30;99.90;;;;;;5035104;28;20137;-39
2023/04/27 01:35:06;;;;;;;11.38;6.47;;;1.30;99.90;;;;;;5035106;28;20049;-40
2023/04/27 01:37:32;;;;;;;9.80;6.75;;;1.20;99.90;;;;;;5025325;28;20073;-38
2023/04/27 01:39:58;;;;;;;8.93;6.85;;;1.20;99.90;;;;;;5030973;28;20147;-43
2023/04/27 01:42:23;;;;;;;9.25;7.25;;;1.20;99.90;;;;;;5035245;28;20053;-38
2023/04/27 01:44:49;;;;;;;10.40;7.50;;;1.20;99.90;;;;;;5035552;28;20091;-38
2023/04/27 01:47:16;;;;;;;10.00;6.88;;;1.20;99.90;;;;;;5026250;28;20158;-34
2023/04/27 01:49:42;;;;;;;9.07;6.78;;;1.20;99.90;;;;;;5028861;28;20625;-40
2023/04/27 01:52:07;;;;;;;10.02;6.60;;;1.20;99.90;;;;;;5027060;28;20124;-35
2023/04/27 01:54:33;;;;;;;13.13;6.95;;;1.20;99.90;;;;;;5049542;28;20057;-33
2023/04/27 01:57:00;;;;;;;11.73;6.43;;;1.20;99.90;;;;;;5034315;28;20048;-38
2023/04/27 01:59:29;;;;;;;10.05;6.70;;;1.30;99.90;;;;;;5049632;28;20524;-44
2023/04/27 02:01:55;;;;;;;10.50;6.18;;;1.20;99.90;;;;;;5029356;28;20139;-37
2023/04/27 02:04:20;;;;;;;8.07;6.50;;;1.30;99.90;;;;;;5033713;28;20159;-38
2023/04/27 02:06:46;;;;;;;13.25;7.22;;;1.30;99.90;;;;;;5032798;28;20288;-39
2023/04/27 02:09:12;;;;;;;8.82;7.22;;;1.40;99.90;;;;;;5020844;28;20191;-36
2023/04/27 02:11:38;;;;;;;11.48;6.78;;;1.30;99.90;;;;;;5036520;28;20063;-36
2023/04/27 02:14:03;;;;;;;11.27;6.75;;;1.30;99.90;;;;;;5053182;28;20057;-37
2023/04/27 02:16:29;;;;;;;11.05;7.28;;;1.30;99.90;;;;;;5038648;28;20051;-43
2023/04/27 02:18:55;;;;;;;12.15;7.43;;;1.40;99.90;;;;;;5039519;28;20037;-35
2023/04/27 02:21:21;;;;;;;11.73;6.50;;;1.40;99.90;;;;;;5038581;28;20683;-37
2023/04/27 02:23:47;;;;;;;16.40;8.02;;;1.40;99.90;;;;;;5053142;28;20589;-39
2023/04/27 02:26:19;;;;;;;12.60;6.85;;;1.40;99.90;;;;;;5038180;28;20049;-37
2023/04/27 02:28:46;;;;;;;9.30;6.75;;;1.40;99.90;;;;;;5037794;28;20041;-38
2023/04/27 02:31:13;;;;;;;10.85;7.03;;;1.50;99.90;;;;;;5038645;28;20115;-40
2023/04/27 02:33:40;;;;;;;10.68;7.78;;;1.50;99.90;;;;;;5037892;28;20083;-35
2023/04/27 02:36:06;;;;;;;10.40;7.45;;;1.60;99.90;;;;;;5037683;28;20051;-40
2023/04/27 02:38:32;;;;;;;11.38;8.52;;;1.70;99.90;;;;;;5038184;28;20082;-41
2023/04/27 02:40:58;;;;;;;10.10;7.97;;;1.70;99.90;;;;;;5053825;28;20053;-39
2023/04/27 02:43:23;;;;;;;13.02;8.05;;;1.70;99.90;;;;;;5037562;28;20107;-35
2023/04/27 02:45:49;;;;;;;12.38;8.60;;;1.70;99.90;;;;;;5038037;28;20056;-36
2023/04/27 02:48:15;;;;;;;12.32;8.63;;;1.80;99.90;;;;;;5037663;28;20777;-35
2023/04/27 02:50:44;;;;;;;11.45;8.45;;;1.80;99.90;;;;;;5038232;28;20447;-39
2023/04/27 02:53:10;;;;;;;12.88;8.65;;;1.80;99.90;;;;;;5037455;28;20175;-37
2023/04/27 02:55:37;;;;;;;15.70;8.73;;;1.90;99.90;;;;;;5038242;28;20508;-36
2023/04/27 02:58:02;;;;;;;12.98;8.00;;;1.90;99.90;;;;;;5025055;28;20049;-35
2023/04/27 03:00:29;;;;;;;12.98;8.60;;;1.90;99.90;;;;;;5021313;28;20376;-33
2023/04/27 03:02:55;;;;;;;16.17;9.15;;;1.90;99.90;;;;;;5034016;28;20415;-37
2023/04/27 03:05:21;;;;;;;14.18;8.85;;;1.90;99.90;;;;;;5038147;28;20814;-35
2023/04/27 03:07:46;;;;;;;12.15;8.90;;;2.00;99.90;;;;;;5037630;28;20343;-38
2023/04/27 03:10:12;;;;;;;14.30;8.88;;;1.90;99.90;;;;;;5038016;28;20040;-37
2023/04/27 03:12:38;;;;;;;13.15;8.50;;;1.90;99.90;;;;;;5037210;28;20373;-37
2023/04/27 03:15:04;;;;;;;13.05;8.85;;;1.90;99.90;;;;;;5037570;28;20435;-40
2023/04/27 03:17:29;;;;;;;10.90;7.85;;;1.90;99.90;;;;;;5023509;28;20045;-37
2023/04/27 03:19:58;;;;;;;14.60;9.38;;;1.90;99.90;;;;;;5037738;28;20103;-36
2023/04/27 03:22:24;;;;;;;13.18;9.30;;;1.90;99.90;;;;;;5036571;28;20060;-37
2023/04/27 03:24:49;;;;;;;11.13;8.52;;;1.90;99.90;;;;;;5037471;28;20383;-37
2023/04/27 03:27:15;;;;;;;13.27;8.50;;;1.90;99.90;;;;;;5019997;28;20275;-34
2023/04/27 03:29:40;;;;;;;13.45;8.32;;;1.90;99.90;;;;;;5018197;28;20084;-34
2023/04/27 03:32:06;;;;;;;14.82;8.60;;;1.80;99.90;;;;;;5034167;28;20639;-44
2023/04/27 03:34:32;;;;;;;13.07;8.23;;;1.80;99.90;;;;;;5026620;28;20488;-41
2023/04/27 03:36:57;;;;;;;10.98;8.68;;;1.80;99.90;;;;;;5032834;28;20076;-39
2023/04/27 03:39:23;;;;;;;11.52;8.30;;;1.80;99.90;;;;;;5027370;28;20052;-39
2023/04/27 03:41:49;;;;;;;12.02;8.75;;;1.80;99.90;;;;;;5037167;28;20094;-38
2023/04/27 03:44:14;;;;;;;12.63;8.07;;;1.80;99.90;;;;;;5036945;28;20059;-34
2023/04/27 03:46:40;;;;;;;13.30;7.93;;;1.80;99.90;;;;;;5036649;28;20147;-37
2023/04/27 03:49:06;;;;;;;11.23;8.13;;;1.90;99.90;;;;;;5037634;28;20541;-37
2023/04/27 03:51:35;;;;;;;12.00;8.75;;;1.80;99.90;;;;;;5026520;28;20081;-40
2023/04/27 03:54:00;;;;;;;12.65;8.68;;;1.90;99.90;;;;;;5036930;28;20037;-35
2023/04/27 03:56:26;;;;;;;12.13;8.50;;;1.80;99.90;;;;;;5036457;28;20416;-41
2023/04/27 03:58:52;;;;;;;11.70;8.70;;;1.80;99.90;;;;;;5033175;28;20041;-38
2023/04/27 04:01:17;;;;;;;13.65;8.20;;;1.80;99.90;;;;;;5032363;28;20045;-38
2023/04/27 04:03:44;;;;;;;10.85;8.32;;;1.70;99.90;;;;;;5035433;28;20044;-41
2023/04/27 04:06:09;;;;;;;13.68;8.10;;;1.70;99.90;;;;;;5034395;28;20589;-35
2023/04/27 04:08:36;;;;;;;12.90;9.02;;;1.70;99.90;;;;;;5037141;28;20049;-40
2023/04/27 04:11:02;;;;;;;12.98;8.90;;;1.60;99.90;;;;;;5036824;28;20659;-40
2023/04/27 04:13:28;;;;;;;11.57;8.52;;;1.50;99.90;;;;;;5026748;28;20049;-37
2023/04/27 04:16:05;;;;;;;12.95;8.77;;;1.50;99.90;;;;;;5032961;28;20381;-39
2023/04/27 04:18:31;;;;;;;12.75;9.65;;;1.50;99.90;;;;;;5036636;28;20037;-36
2023/04/27 04:20:57;;;;;;;10.93;7.95;;;1.40;99.90;;;;;;5034555;28;20049;-41
2023/04/27 04:23:23;;;;;;;11.65;8.30;;;1.40;99.90;;;;;;5035935;28;20115;-38
2023/04/27 04:25:49;;;;;;;10.43;7.53;;;1.40;99.90;;;;;;5036179;28;20051;-43
2023/04/27 04:28:15;;;;;;;11.25;8.55;;;1.30;99.90;;;;;;5036583;28;20373;-37
2023/04/27 04:30:42;;;;;;;10.88;7.22;;;1.30;99.90;;;;;;5025705;28;20049;-34
2023/04/27 04:33:08;;;;;;;10.05;7.55;;;1.30;99.90;;;;;;5051498;28;20048;-37
2023/04/27 04:35:37;;;;;;;12.00;8.52;;;1.40;99.90;;;;;;5034378;28;20049;-38
2023/04/27 04:38:03;;;;;;;11.45;7.88;;;1.40;99.90;;;;;;5024038;28;20045;-37
2023/04/27 04:40:29;;;;;;;13.85;8.25;;;1.40;99.90;;;;;;5022628;28;20106;-37
2023/04/27 04:42:54;;;;;;;10.85;8.38;;;1.50;99.90;;;;;;5036522;28;20152;-40
2023/04/27 04:45:20;;;;;;;13.07;9.02;;;1.50;99.90;;;;;;5036272;28;20037;-35
2023/04/27 04:47:46;;;;;;;12.73;8.50;;;1.60;99.90;;;;;;5022246;28;20445;-38
2023/04/27 04:50:12;;;;;;;13.52;9.10;;;1.70;99.90;;;;;;5035194;28;20116;-40
2023/04/27 04:52:37;;;;;;;16.80;10.05;;;1.70;99.90;;;;;;5034810;28;20498;-34
2023/04/27 04:55:03;;;;;;;13.30;8.70;;;1.80;99.90;;;;;;5036004;28;20052;-37
2023/04/27 04:57:29;;;;;;;14.52;9.32;;;1.90;99.90;;;;;;5035299;28;20041;-36
2023/04/27 04:59:55;;;;;;;14.45;8.57;;;2.00;99.90;;;;;;5028835;28;20037;-34
2023/04/27 05:02:21;;;;;;;12.27;9.07;;;2.10;99.90;;;;;;5035565;28;20568;-34
2023/04/27 05:04:46;;;;;;;12.85;8.57;;;2.20;99.90;;;;;;5036372;28;20055;-38
2023/04/27 05:07:12;;;;;;;14.25;8.52;;;2.80;99.90;;;;;;5051378;28;20124;-37
2023/04/27 05:09:38;;;;;;;10.45;8.38;;;3.50;99.90;;;;;;5023129;28;20046;-37
2023/04/27 05:12:04;;;;;;;9.75;8.20;;;4.10;99.90;;;;;;5036645;28;20187;-40
2023/04/27 05:14:30;;;;;;;10.88;7.82;;;4.10;99.90;;;;;;5051546;28;20053;-37
2023/04/27 05:16:56;;;;;;;12.65;8.35;;;4.20;99.90;;;;;;5024039;28;20406;-44
2023/04/27 05:19:22;;;;;;;9.48;8.00;;;4.80;99.90;;;;;;5019763;28;20506;-41
2023/04/27 05:21:47;;;;;;;12.48;8.15;;;5.70;99.90;;;;;;5035718;28;20049;-40
2023/04/27 05:24:13;;;;;;;9.45;7.50;;;6.60;99.90;;;;;;5033378;28;20045;-38
2023/04/27 05:26:38;;;;;;;7.95;7.03;;;7.40;99.90;;;;;;5034574;28;20071;-38
2023/04/27 05:29:04;;;;;;;8.98;6.68;;;8.20;99.90;;;;;;5032723;28;20061;-43
2023/04/27 05:31:30;;;;;;;12.43;7.10;;;8.90;99.90;;;;;;5026290;28;20065;-36
2023/04/27 05:33:56;;;;;;;9.00;6.63;;;9.50;99.90;;;;;;5034897;28;20118;-43
2023/04/27 05:36:21;;;;;;;8.55;6.60;;;10.10;99.90;;;;;;5035712;28;20777;-42
2023/04/27 05:38:47;;;;;;;11.15;7.38;;;10.50;99.90;;;;;;5035510;28;20288;-40
2023/04/27 05:41:13;;;;;;;10.07;6.30;;;10.80;99.90;;;;;;5034777;28;20099;-38
2023/04/27 05:43:38;;;;;;;7.40;6.45;;;11.20;99.90;;;;;;5049839;28;20044;-38
2023/04/27 05:46:04;;;;;;;10.07;7.13;;;11.60;99.90;;;;;;5022861;28;20052;-39
2023/04/27 05:48:30;;;;;;;6.97;5.97;;;12.00;99.90;;;;;;5033796;28;20045;-38
2023/04/27 05:51:00;;;;;;;7.32;5.93;;;12.30;99.90;;;;;;5035439;28;20099;-39
2023/04/27 05:53:26;;;;;;;9.05;5.90;;;12.60;99.90;;;;;;5033948;28;20109;-44
2023/04/27 05:55:52;;;;;;;10.73;6.13;;;12.90;99.90;;;;;;5035548;28;20139;-42
2023/04/27 05:58:18;;;;;;;8.27;5.80;;;13.00;99.90;;;;;;5035693;28;20104;-40
2023/04/27 06:00:43;;;;;;;8.85;6.35;;;13.10;99.90;;;;;;5035485;28;20124;-39
2023/04/27 06:03:09;;;;;;;7.80;5.60;;;13.40;99.90;;;;;;5034723;28;20049;-39
2023/04/27 06:05:35;;;;;;;8.27;6.03;;;13.60;99.90;;;;;;5035608;28;20049;-43
2023/04/27 06:08:00;;;;;;;10.38;6.47;;;13.80;99.90;;;;;;5031866;28;20098;-37
2023/04/27 06:10:26;;;;;;;6.72;5.07;;;14.10;99.90;;;;;;5023434;28;20065;-47
2023/04/27 06:12:52;;;;;;;7.15;5.63;;;14.20;99.90;;;;;;5034856;28;20033;-43
2023/04/27 06:15:18;;;;;;;8.10;5.35;;;14.40;99.90;;;;;;5033477;28;20080;-39
2023/04/27 06:17:44;;;;;;;7.22;5.45;;;14.60;99.90;;;;;;5020816;28;20463;-40
2023/04/27 06:20:11;;;;;;;10.13;5.72;;;14.70;99.90;;;;;;5030427;28;20045;-46
2023/04/27 06:22:37;;;;;;;6.60;5.90;;;15.20;99.90;;;;;;5019423;28;20558;-36
2023/04/27 06:25:06;;;;;;;7.50;5.07;;;15.40;99.20;;;;;;5033678;28;20037;-42
2023/04/27 06:27:33;;;;;;;6.82;5.22;;;15.40;99.30;;;;;;5033481;28;20041;-42
2023/04/27 06:29:58;;;;;;;6.90;5.35;;;15.50;98.60;;;;;;5034083;28;20064;-37
2023/04/27 06:32:24;;;;;;;7.97;5.40;;;15.70;98.60;;;;;;5021418;28;20773;-42
2023/04/27 06:34:50;;;;;;;6.15;5.05;;;15.60;98.70;;;;;;5034387;28;20492;-40
2023/04/27 06:37:16;;;;;;;8.55;5.25;;;15.70;98.90;;;;;;5034224;28;20259;-39
2023/04/27 06:39:44;;;;;;;7.25;5.40;;;16.20;99.60;;;;;;5032130;28;20049;-44
2023/04/27 06:42:10;;;;;;;5.32;4.65;;;16.40;98.50;;;;;;5030731;28;20072;-43
2023/04/27 06:44:36;;;;;;;8.05;4.68;;;16.50;98.50;;;;;;5022081;28;20120;-42
2023/04/27 06:47:02;;;;;;;7.10;4.47;;;16.80;97.90;;;;;;5026431;28;20045;-41
2023/04/27 06:49:27;;;;;;;8.15;5.40;;;16.80;97.90;;;;;;5027309;28;20479;-39
2023/04/27 06:51:53;;;;;;;8.20;4.97;;;16.70;98.00;;;;;;5030275;28;20040;-42
2023/04/27 06:54:19;;;;;;;7.20;4.63;;;17.00;97.70;;;;;;5031859;28;20652;-42
2023/04/27 06:56:45;;;;;;;6.63;4.68;;;17.00;97.50;;;;;;5048171;28;20156;-40
2023/04/27 06:59:10;;;;;;;5.13;4.20;;;16.90;98.00;;;;;;5024324;28;20042;-43
2023/04/27 07:01:37;;;;;;;6.07;4.07;;;16.10;97.20;;;;;;5036998;28;20041;-41
2023/04/27 07:04:03;;;;;;;4.88;3.72;;;15.20;98.00;;;;;;5053157;28;20084;-43
2023/04/27 07:06:30;;;;;;;5.72;3.53;;;14.60;99.20;;;;;;5023239;28;20045;-40
2023/04/27 07:08:56;;;;;;;6.72;4.28;;;14.20;99.60;;;;;;5037709;28;20044;-42
2023/04/27 07:11:22;;;;;;;5.63;3.55;;;13.70;99.90;;;;;;5034563;28;20478;-46
2023/04/27 07:13:48;;;;;;;6.65;3.53;;;13.50;99.90;;;;;;5035196;28;20132;-37
2023/04/27 07:16:14;;;;;;;5.80;3.65;;;13.50;99.90;;;;;;5037113;28;20041;-38
2023/04/27 07:18:40;;;;;;;4.93;3.38;;;13.50;99.90;;;;;;5037433;28;20045;-46
2023/04/27 07:21:06;;;;;;;7.85;4.30;;;13.60;99.90;;;;;;5037016;28;20053;-40
2023/04/27 07:23:32;;;;;;;7.75;4.40;;;13.60;99.90;;;;;;5048751;28;20304;-46
2023/04/27 07:25:58;;;;;;;4.68;3.80;;;13.40;99.90;;;;;;5035721;28;20107;-36
2023/04/27 07:28:24;;;;;;;7.10;4.03;;;13.20;99.90;;;;;;5034978;28;20076;-39
2023/04/27 07:30:50;;;;;;;5.70;3.65;;;13.10;99.90;;;;;;5051860;28;20166;-40
2023/04/27 07:33:16;;;;;;;7.43;3.45;;;13.10;99.90;;;;;;5024828;28;20041;-41
2023/04/27 07:35:42;;;;;;;5.30;3.10;;;13.10;99.90;;;;;;5034385;28;20052;-41
2023/04/27 07:38:07;;;;;;;5.28;3.58;;;13.30;99.90;;;;;;5037341;28;20099;-42
2023/04/27 07:40:33;;;;;;;7.10;3.42;;;13.30;99.90;;;;;;5036666;28;20314;-37
2023/04/27 07:42:59;;;;;;;6.95;3.70;;;13.30;99.90;;;;;;5027439;28;20384;-44
2023/04/27 07:45:30;;;;;;;4.32;3.25;;;13.30;99.90;;;;;;5038002;28;20825;-39
2023/04/27 07:47:58;;;;;;;8.18;3.67;;;13.20;99.80;;;;;;5036848;28;20491;-43
2023/04/27 07:50:25;;;;;;;7.10;2.95;;;13.00;99.90;;;;;;5023323;28;20056;-39
2023/04/27 07:52:53;;;;;;;4.10;2.28;;;13.10;99.00;;;;;;5036141;28;20056;-36
2023/04/27 07:55:20;;;;;;;4.97;3.20;;;13.10;98.40;;;;;;5022739;28;20091;-39
2023/04/27 07:57:46;;;;;;;4.82;2.78;;;13.10;99.60;;;;;;5036291;28;20053;-39
2023/04/27 08:00:12;;;;;;;6.55;2.70;;;13.30;98.50;;;;;;5029143;28;20098;-42
2023/04/27 08:02:37;;;;;;;5.53;3.85;;;13.10;95.80;;;;;;5035907;28;20066;-42
2023/04/27 08:05:03;;;;;;;5.45;4.07;;;12.90;97.70;;;;;;5036188;28;20049;-41
2023/04/27 08:07:30;;;;;;;7.40;5.72;;;12.80;98.20;;;;;;5035233;28;20090;-39
2023/04/27 08:09:56;;;;;;;5.40;3.33;;;12.60;98.40;;;;;;5036405;28;20056;-45
2023/04/27 08:12:22;;;;;;;4.97;3.13;;;12.50;96.90;;;;;;5050918;28;20049;-40
2023/04/27 08:14:47;;;;;;;5.47;3.50;;;12.50;97.20;;;;;;5036338;28;20635;-39
2023/04/27 08:17:13;;;;;;;6.45;4.35;;;12.50;97.00;;;;;;5034888;28;20568;-41
2023/04/27 08:19:40;;;;;;;8.23;4.95;;;12.50;98.90;;;;;;5034612;28;20053;-42
2023/04/27 08:22:05;;;;;;;6.68;4.50;;;12.50;99.30;;;;;;5034756;28;20059;-42
2023/04/27 08:24:31;;;;;;;5.80;4.03;;;12.50;98.50;;;;;;5029606;28;20052;-42
2023/04/27 08:26:57;;;;;;;7.80;5.60;;;12.50;98.60;;;;;;5029930;28;20128;-46
2023/04/27 08:29:23;;;;;;;8.82;4.80;;;12.60;99.90;;;;;;5031285;28;20466;-38
2023/04/27 08:31:48;;;;;;;9.27;4.45;;;12.70;99.90;;;;;;5029905;28;20534;-43
2023/04/27 08:34:14;;;;;;;8.77;4.60;;;12.70;99.90;;;;;;5050263;28;20064;-43
2023/04/27 08:36:40;;;;;;;9.63;4.90;;;12.70;99.90;;;;;;5034796;28;20056;-36
2023/04/27 08:39:06;;;;;;;6.53;3.67;;;12.80;99.60;;;;;;5026148;28;20045;-41
2023/04/27 08:41:32;;;;;;;7.68;4.47;;;12.90;99.70;;;;;;5029493;28;20061;-44
2023/04/27 08:43:58;;;;;;;8.25;4.10;;;13.10;98.50;;;;;;5034032;28;20053;-40
2023/04/27 08:46:27;;;;;;;6.75;3.17;;;13.10;97.30;;;;;;5048112;28;20057;-41
2023/04/27 08:48:53;;;;;;;8.63;3.90;;;13.00;98.70;;;;;;5026388;28;20400;-39
2023/04/27 08:51:20;;;;;;;7.40;4.07;;;13.00;97.90;;;;;;5028302;28;20041;-42
2023/04/27 08:53:49;;;;;;;4.97;3.67;;;13.00;98.30;;;;;;5034457;28;20160;-40
2023/04/27 08:56:15;;;;;;;5.97;4.30;;;13.00;97.00;;;;;;5034518;28;20057;-37
2023/04/27 08:58:41;;;;;;;5.93;3.95;;;13.20;99.60;;;;;;5028272;28;20045;-40
2023/04/27 09:01:07;;;;;;;9.98;6.05;;;13.30;99.60;;;;;;5030201;28;20157;-41
2023/04/27 09:03:34;;;;;;;7.68;5.10;;;13.40;98.30;;;;;;5034996;28;20136;-38
2023/04/27 09:06:04;;;;;;;6.57;4.90;;;13.30;96.90;;;;;;5034817;28;20413;-37
2023/04/27 09:08:46;;;;;;;10.30;5.88;;;13.40;98.00;;;;;;5035281;28;20171;-45
2023/04/27 09:11:35;;;;;;;5.97;3.85;;;13.50;98.20;;;;;;5035476;28;20055;-43
2023/04/27 09:14:13;;;;;;;8.63;4.45;;;13.40;96.70;;;;;;4993370;28;20088;-36
2023/04/27 09:16:39;;;;;;;8.45;4.07;;;13.20;96.60;;;;;;4992526;28;20081;-39
2023/04/27 09:19:05;;;;;;;10.80;6.18;;;13.30;98.00;;;;;;4993119;28;20112;-38
2023/04/27 09:21:31;;;;;;;8.85;4.90;;;13.40;97.30;;;;;;4975821;28;20084;-42
2023/04/27 09:23:57;;;;;;;6.72;5.00;;;13.70;98.90;;;;;;4975795;28;20085;-44
2023/04/27 09:26:26;;;;;;;12.35;7.45;;;13.50;98.00;;;;;;4991989;28;20157;-40
2023/04/27 09:28:56;;;;;;;11.73;6.70;;;13.70;99.70;;;;;;4993148;28;20527;-41
2023/04/27 09:31:30;;;;;;;10.13;5.68;;;13.70;98.40;;;;;;4993472;28;20120;-41
2023/04/27 09:33:56;;;;;;;14.75;8.85;;;13.50;96.90;;;;;;4992595;28;20062;-48
2023/04/27 09:36:23;;;;;;;20.00;12.40;;;13.50;97.70;;;;;;4992362;28;20511;-44
2023/04/27 09:38:51;;;;;;;18.00;10.85;;;13.70;96.50;;;;;;4991639;28;20160;-38
2023/04/27 09:41:17;;;;;;;10.45;6.80;;;13.90;98.10;;;;;;4992908;28;20057;-40
2023/04/27 09:43:46;;;;;;;11.25;7.03;;;14.10;96.70;;;;;;4991797;28;20134;-41
2023/04/27 09:46:13;;;;;;;17.77;11.75;;;14.20;95.60;;;;;;4975650;28;20127;-43
2023/04/27 09:48:39;;;;;;;15.18;9.55;;;14.20;98.20;;;;;;4992564;28;20042;-40
2023/04/27 09:51:05;;;;;;;20.48;10.63;;;14.30;97.80;;;;;;5003960;28;20064;-43
2023/04/27 09:53:47;;;;;;;21.88;11.48;;;14.10;96.00;;;;;;5032284;28;20053;-37
2023/04/27 09:56:34;;;;;;;19.15;11.15;;;14.10;96.80;;;;;;5034471;28;20119;-43
2023/04/27 09:59:08;;;;;;;14.57;9.18;;;14.20;98.70;;;;;;5033960;28;20131;-39
2023/04/27 10:01:43;;;;;;;12.77;8.18;;;14.20;98.00;;;;;;5034896;28;20548;-42
2023/04/27 10:04:19;;;;;;;12.10;6.70;;;14.10;97.90;;;;;;5035052;28;20045;-42
2023/04/27 10:07:01;;;;;;;8.57;5.32;;;14.30;98.90;;;;;;5030212;28;20053;-43
2023/04/27 10:09:33;;;;;;;9.10;5.60;;;14.50;98.50;;;;;;5018680;28;20067;-45
2023/04/27 10:12:13;;;;;;;10.50;6.30;;;14.60;97.30;;;;;;5023578;28;20132;-43
2023/04/27 10:14:48;;;;;;;10.65;6.18;;;14.70;98.00;;;;;;5034476;28;20052;-37
2023/04/27 10:17:15;;;;;;;8.85;4.80;;;14.90;97.70;;;;;;5034163;28;20053;-40
2023/04/27 10:19:53;;;;;;;9.57;4.85;;;14.90;96.00;;;;;;5033132;28;20056;-44
2023/04/27 10:22:19;;;;;;;8.05;4.85;;;14.80;96.00;;;;;;5033786;28;20045;-37
2023/04/27 10:24:48;;;;;;;6.22;4.75;;;14.70;96.00;;;;;;5035244;28;20484;-36
2023/04/27 10:27:18;;;;;;;6.18;4.70;;;14.80;96.70;;;;;;5034564;28;20511;-37
2023/04/27 10:29:45;;;;;;;8.20;4.97;;;14.60;96.60;;;;;;5027095;28;20042;-42
2023/04/27 10:32:28;;;;;;;8.00;4.57;;;14.60;97.00;;;;;;5020119;28;20424;-37
2023/04/27 10:35:08;;;;;;;7.70;4.70;;;14.70;97.20;;;;;;5038822;28;20040;-37
2023/04/27 10:37:43;;;;;;;4.70;4.18;;;14.70;97.20;;;;;;5037135;28;20495;-39
2023/04/27 10:40:13;;;;;;;9.10;5.10;;;14.70;95.10;;;;;;5038094;28;20508;-38
2023/04/27 10:42:40;;;;;;;9.88;4.57;;;14.70;96.90;;;;;;5038545;28;20127;-40
2023/04/27 10:45:07;;;;;;;5.75;4.35;;;14.70;95.80;;;;;;5037066;28;20498;-43
2023/04/27 10:47:40;;;;;;;5.88;4.32;;;14.70;95.80;;;;;;5038013;28;20115;-44
2023/04/27 10:50:08;;;;;;;6.50;4.65;;;14.70;96.30;;;;;;5038285;28;20040;-44
2023/04/27 10:52:33;;;;;;;13.55;4.78;;;14.70;96.10;;;;;;5037728;28;20057;-40
2023/04/27 10:55:14;;;;;;;6.05;4.35;;;14.90;97.80;;;;;;5038030;28;20087;-41
2023/04/27 10:57:51;;;;;;;6.97;4.75;;;14.90;95.90;;;;;;5038194;28;20057;-39
2023/04/27 11:00:31;;;;;;;8.55;5.07;;;15.00;95.50;;;;;;5029930;28;20063;-40
2023/04/27 11:03:15;;;;;;;9.05;5.20;;;14.90;95.30;;;;;;5037601;28;20071;-48
2023/04/27 11:05:42;;;;;;;7.68;5.13;;;15.00;96.10;;;;;;5037551;28;20049;-41
2023/04/27 11:08:13;;;;;;;7.47;5.45;;;15.10;96.40;;;;;;5053391;28;20052;-44
2023/04/27 11:10:43;;;;;;;8.20;5.72;;;15.00;96.50;;;;;;5038604;28;20523;-44
2023/04/27 11:13:11;;;;;;;8.10;4.70;;;15.20;96.70;;;;;;5038364;28;20067;-43
2023/04/27 11:15:57;;;;;;;7.90;5.22;;;15.40;95.30;;;;;;5036233;28;20145;-41
2023/04/27 11:18:30;;;;;;;6.55;4.95;;;15.60;94.80;;;;;;5038544;28;20419;-43
2023/04/27 11:21:13;;;;;;;7.38;5.47;;;15.40;95.30;;;;;;5037845;28;20049;-37
2023/04/27 11:23:40;;;;;;;;;;;15.40;94.10;;;;;;5039402;28;20491;-39
2023/04/27 11:26:13;;;;;;;8.80;5.78;;;15.20;93.30;;;;;;5036918;28;20367;-42
2023/04/27 11:28:40;;;;;;;8.75;5.10;;;15.10;96.50;;;;;;5037626;28;20045;-40
2023/04/27 11:31:06;;;;;;;7.63;5.07;;;15.00;97.00;;;;;;5026143;28;20132;-37
2023/04/27 11:33:32;;;;;;;9.27;5.43;;;15.10;96.00;;;;;;5036432;28;20450;-40
2023/04/27 11:35:58;;;;;;;8.20;5.90;;;15.10;97.80;;;;;;5035673;28;20053;-43
2023/04/27 11:38:26;;;;;;;10.07;5.80;;;15.20;96.60;;;;;;5023882;28;20085;-41
2023/04/27 11:41:03;;;;;;;10.82;5.80;;;15.10;96.00;;;;;;5037841;28;20419;-42
2023/04/27 11:43:29;;;;;;;7.65;5.80;;;15.10;95.30;;;;;;5036546;28;20048;-43
2023/04/27 11:45:55;;;;;;;9.98;5.53;;;15.20;95.50;;;;;;5038171;28;20044;-41
2023/04/27 11:48:26;;;;;;;8.13;5.68;;;15.10;96.30;;;;;;5037906;28;20520;-37
2023/04/27 11:50:52;;;;;;;7.15;5.65;;;15.10;96.90;;;;;;5053140;28;20070;-43
2023/04/27 11:53:31;;;;;;;6.82;5.97;;;15.20;96.70;;;;;;5036433;28;20045;-43
2023/04/27 11:56:06;;;;;;;6.72;5.60;;;15.30;96.30;;;;;;5037002;28;20057;-47
2023/04/27 11:58:36;;;;;;;10.77;5.70;;;15.40;96.20;;;;;;5036236;28;20049;-38
2023/04/27 12:01:03;;;;;;;7.50;5.43;;;15.40;94.90;;;;;;5030696;28;20053;-40
2023/04/27 12:03:30;;;;;;;9.80;6.05;;;15.20;94.30;;;;;;5036512;28;20106;-43
2023/04/27 12:05:56;;;;;;;11.30;6.38;;;15.10;94.10;;;;;;5035544;28;20048;-41
2023/04/27 12:08:23;;;;;;;9.10;5.97;;;14.80;95.10;;;;;;5029162;28;20049;-38
2023/04/27 12:10:48;;;;;;;8.88;5.82;;;14.90;94.70;;;;;;5032018;28;20049;-44
2023/04/27 12:13:14;;;;;;;6.07;5.45;;;14.70;94.20;;;;;;5035651;28;20045;-44
2023/04/27 12:15:41;;;;;;;8.25;5.68;;;14.70;96.00;;;;;;5036144;28;20045;-37
2023/04/27 12:18:07;;;;;;;6.70;4.85;;;14.70;95.30;;;;;;5036498;28;20057;-45
2023/04/27 12:20:33;;;;;;;9.98;6.68;;;14.80;96.80;;;;;;5051707;28;20103;-44
2023/04/27 12:22:59;;;;;;;6.50;4.97;;;14.70;97.40;;;;;;5036587;28;20064;-42
2023/04/27 12:25:25;;;;;;;8.82;5.70;;;14.60;96.20;;;;;;5036287;28;20060;-40
2023/04/27 12:27:51;;;;;;;9.02;5.40;;;14.60;96.40;;;;;;5036242;28;20532;-37
2023/04/27 12:30:17;;;;;;;10.10;6.05;;;14.60;95.90;;;;;;5034044;28;20936;-38
2023/04/27 12:32:42;;;;;;;8.25;5.30;;;14.40;95.60;;;;;;5016027;28;20456;-40
2023/04/27 12:35:09;;;;;;;7.72;5.18;;;14.10;95.70;;;;;;5031967;28;20060;-41
2023/04/27 12:37:35;;;;;;;8.45;6.20;;;14.00;95.80;;;;;;5026269;28;20049;-45
2023/04/27 12:40:01;;;;;;;9.63;5.60;;;14.00;96.70;;;;;;5032937;28;20056;-36
2023/04/27 12:42:26;;;;;;;6.82;5.80;;;14.00;96.60;;;;;;5035901;28;20061;-46
2023/04/27 12:44:52;;;;;;;13.45;6.22;;;14.20;97.00;;;;;;5036932;28;20049;-38
2023/04/27 12:47:21;;;;;;;9.82;6.30;;;14.30;97.50;;;;;;5035502;28;20044;-38
2023/04/27 12:49:47;;;;;;;8.32;5.80;;;14.40;96.70;;;;;;5036191;28;20116;-43